createdAt,value
2022-09-27T00:02:23.679Z,84.92
2022-09-27T00:04:50.098Z,84.96
2022-09-27T00:07:16.554Z,85.07
2022-09-27T00:09:42.981Z,85.06
2022-09-27T00:12:10.067Z,85.04
2022-09-27T00:14:36.534Z,84.84
2022-09-27T00:17:03.036Z,84.60
2022-09-27T00:19:29.431Z,84.37
2022-09-27T00:21:56.401Z,84.16
2022-09-27T00:24:23.152Z,83.96
2022-09-27T00:26:50.202Z,84.12
2022-09-27T00:29:18.595Z,84.23
2022-09-27T00:31:45.800Z,84.09
2022-09-27T00:34:21.633Z,83.98
2022-09-27T00:36:48.890Z,83.60
2022-09-27T00:39:15.764Z,84.08
2022-09-27T00:41:42.644Z,83.87
2022-09-27T00:44:28.370Z,83.82
2022-09-27T00:47:08.673Z,83.58
2022-09-27T00:49:43.282Z,83.29
2022-09-27T00:52:21.378Z,83.13
2022-09-27T00:54:51.974Z,82.87
2022-09-27T00:57:19.733Z,82.91
2022-09-27T00:59:51.043Z,82.61
2022-09-27T01:02:18.050Z,82.64
2022-09-27T01:04:45.653Z,82.43
2022-09-27T01:07:12.021Z,82.75
2022-09-27T01:09:39.513Z,83.15
2022-09-27T01:12:32.494Z,83.42
2022-09-27T01:15:20.837Z,82.93
2022-09-27T01:17:50.183Z,83.13
2022-09-27T01:21:00.623Z,83.04
2022-09-27T01:24:02.862Z,83.26
2022-09-27T01:26:38.514Z,83.20
2022-09-27T01:29:34.113Z,83.36
2022-09-27T01:32:32.826Z,83.53
2022-09-27T01:35:15.850Z,83.78
2022-09-27T01:38:07.016Z,83.24
2022-09-27T01:40:45.196Z,83.60
2022-09-27T01:43:37.428Z,83.23
2022-09-27T01:46:36.468Z,83.43
2022-09-27T01:49:37.915Z,83.64
2022-09-27T01:52:08.130Z,83.66
2022-09-27T01:54:40.563Z,84.18
2022-09-27T01:57:39.273Z,83.70
2022-09-27T02:00:12.077Z,83.97
2022-09-27T02:02:48.143Z,83.73
2022-09-27T02:05:26.991Z,83.61
2022-09-27T02:08:02.208Z,84.02
2022-09-27T02:10:39.497Z,83.67
2022-09-27T02:13:26.104Z,83.50
2022-09-27T02:16:05.659Z,83.58
2022-09-27T02:18:55.380Z,83.74
2022-09-27T02:21:29.761Z,84.35
2022-09-27T02:24:02.646Z,84.72
2022-09-27T02:26:45.976Z,85.15
2022-09-27T02:29:24.541Z,84.99
2022-09-27T02:31:53.116Z,84.67
2022-09-27T02:34:24.096Z,84.95
2022-09-27T02:36:53.305Z,84.21
2022-09-27T02:39:21.133Z,84.25
2022-09-27T02:41:58.393Z,84.08
2022-09-27T02:44:27.253Z,84.48
2022-09-27T02:47:16.967Z,85.26
2022-09-27T02:50:03.358Z,84.94
2022-09-27T02:53:09.525Z,85.30
2022-09-27T02:56:00.057Z,85.27
2022-09-27T02:59:11.345Z,85.35
2022-09-27T03:02:24.389Z,85.02
2022-09-27T03:05:30.544Z,84.76
2022-09-27T03:07:57.354Z,84.92
2022-09-27T03:10:29.340Z,84.67
2022-09-27T03:12:58.538Z,84.69
2022-09-27T03:15:24.955Z,84.39
2022-09-27T03:18:11.674Z,84.04
2022-09-27T03:20:56.762Z,83.92
2022-09-27T03:23:25.694Z,84.03
2022-09-27T03:25:52.107Z,83.47
2022-09-27T03:28:19.293Z,83.85
2022-09-27T03:30:47.453Z,83.65
2022-09-27T03:33:33.471Z,83.37
2022-09-27T03:36:05.520Z,82.89
2022-09-27T03:38:31.970Z,82.89
2022-09-27T03:40:59.018Z,82.83
2022-09-27T03:43:25.719Z,82.94
2022-09-27T03:45:56.594Z,83.04
2022-09-27T03:48:27.763Z,82.41
2022-09-27T03:50:54.611Z,82.78
2022-09-27T03:53:21.203Z,82.73
2022-09-27T03:55:47.961Z,82.93
2022-09-27T03:58:14.698Z,82.40
2022-09-27T04:00:41.296Z,82.45
2022-09-27T04:03:07.828Z,82.34
2022-09-27T04:05:53.808Z,82.46
2022-09-27T04:08:27.943Z,83.07
2022-09-27T04:10:54.425Z,82.57
2022-09-27T04:13:21.076Z,82.19
2022-09-27T04:15:54.135Z,82.34
2022-09-27T04:18:43.769Z,82.12
2022-09-27T04:21:36.182Z,82.03
2022-09-27T04:24:05.186Z,81.66
2022-09-27T04:26:31.773Z,81.42
2022-09-27T04:29:02.465Z,81.29
2022-09-27T04:31:29.702Z,81.57
2022-09-27T04:34:18.146Z,81.54
2022-09-27T04:36:44.542Z,81.80
2022-09-27T04:39:16.303Z,81.50
2022-09-27T04:41:45.056Z,81.79
2022-09-27T04:44:11.842Z,81.63
2022-09-27T04:46:41.139Z,81.76
2022-09-27T04:49:07.640Z,82.02
2022-09-27T04:51:36.165Z,82.21
2022-09-27T04:54:03.846Z,81.31
2022-09-27T04:56:33.149Z,81.71
2022-09-27T04:59:01.279Z,81.00
2022-09-27T05:01:27.783Z,81.48
2022-09-27T05:04:12.909Z,81.24
2022-09-27T05:06:43.188Z,81.80
2022-09-27T05:09:18.147Z,82.01
2022-09-27T05:11:49.690Z,82.14
2022-09-27T05:14:16.202Z,82.00
2022-09-27T05:17:08.750Z,82.54
2022-09-27T05:20:14.053Z,82.09
2022-09-27T05:22:53.356Z,82.73
2022-09-27T05:25:19.779Z,81.83
2022-09-27T05:27:47.062Z,81.94
2022-09-27T05:30:13.715Z,81.95
2022-09-27T05:32:49.234Z,82.06
2022-09-27T05:35:45.750Z,81.85
2022-09-27T05:38:12.921Z,81.81
2022-09-27T05:40:44.294Z,81.80
2022-09-27T05:43:11.345Z,81.88
2022-09-27T05:45:38.079Z,81.66
2022-09-27T05:48:06.616Z,81.66
2022-09-27T05:50:39.201Z,82.28
2022-09-27T05:53:06.620Z,81.73
2022-09-27T05:55:33.061Z,81.60
2022-09-27T05:58:02.118Z,81.10
2022-09-27T06:00:51.420Z,81.07
2022-09-27T06:03:36.589Z,81.08
2022-09-27T06:06:15.474Z,80.96
2022-09-27T06:08:55.936Z,80.50
2022-09-27T06:11:26.297Z,80.62
2022-09-27T06:13:52.985Z,81.16
2022-09-27T06:16:19.762Z,80.92
2022-09-27T06:18:46.174Z,80.57
2022-09-27T06:21:13.453Z,80.86
2022-09-27T06:23:43.311Z,80.64
2022-09-27T06:26:16.404Z,80.37
2022-09-27T06:29:02.722Z,80.32
2022-09-27T06:31:31.100Z,80.17
2022-09-27T06:34:07.209Z,80.10
2022-09-27T06:36:34.015Z,79.62
2022-09-27T06:39:01.635Z,79.54
2022-09-27T06:41:44.163Z,79.66
2022-09-27T06:44:21.607Z,79.31
2022-09-27T06:47:27.085Z,78.56
2022-09-27T06:50:10.034Z,78.73
2022-09-27T06:52:37.304Z,78.11
2022-09-27T06:55:05.367Z,77.52
2022-09-27T06:57:52.204Z,77.50
2022-09-27T07:00:26.513Z,77.16
2022-09-27T07:03:23.979Z,78.07
2022-09-27T07:06:17.499Z,77.26
2022-09-27T07:08:53.090Z,77.83
2022-09-27T07:11:23.603Z,77.34
2022-09-27T07:13:51.753Z,77.00
2022-09-27T07:16:19.003Z,77.88
2022-09-27T07:18:48.362Z,75.89
2022-09-27T07:21:16.230Z,72.57
2022-09-27T07:23:42.777Z,70.48
2022-09-27T07:26:12.680Z,69.07
2022-09-27T07:28:41.548Z,67.65
2022-09-27T07:31:12.840Z,66.25
2022-09-27T07:33:43.193Z,65.44
2022-09-27T07:36:11.683Z,64.30
2022-09-27T07:38:41.302Z,64.28
2022-09-27T07:41:10.990Z,65.36
2022-09-27T07:43:37.422Z,66.33
2022-09-27T07:46:04.879Z,66.13
2022-09-27T07:48:43.166Z,65.65
2022-09-27T07:51:15.238Z,66.67
2022-09-27T07:53:44.583Z,67.49
2022-09-27T07:56:29.935Z,68.65
2022-09-27T07:58:57.177Z,68.21
2022-09-27T08:01:23.927Z,68.64
2022-09-27T08:03:50.740Z,68.35
2022-09-27T08:06:19.081Z,69.03
2022-09-27T08:08:47.348Z,68.73
2022-09-27T08:11:16.425Z,67.82
2022-09-27T08:13:45.670Z,66.63
2022-09-27T08:16:14.148Z,65.58
2022-09-27T08:19:07.213Z,64.91
2022-09-27T08:21:58.889Z,65.98
2022-09-27T08:24:30.544Z,65.94
2022-09-27T08:27:14.860Z,65.42
2022-09-27T08:29:57.568Z,66.52
2022-09-27T08:32:24.021Z,66.78
2022-09-27T08:34:51.593Z,66.56
2022-09-27T08:37:20.539Z,66.94
2022-09-27T08:39:48.306Z,66.41
2022-09-27T08:42:37.250Z,66.39
2022-09-27T08:45:14.686Z,66.96
2022-09-27T08:47:46.378Z,67.50
2022-09-27T08:50:23.674Z,67.54
2022-09-27T08:52:54.836Z,67.67
2022-09-27T08:55:25.513Z,68.38
2022-09-27T08:57:56.552Z,69.81
2022-09-27T09:00:24.749Z,69.45
2022-09-27T09:02:51.359Z,70.23
2022-09-27T09:05:30.248Z,70.92
2022-09-27T09:08:09.938Z,72.18
2022-09-27T09:11:07.971Z,71.15
2022-09-27T09:13:37.317Z,71.92
2022-09-27T09:16:22.702Z,72.11
2022-09-27T09:19:10.015Z,72.33
2022-09-27T09:22:16.846Z,71.68
2022-09-27T09:25:00.145Z,70.79
2022-09-27T09:27:43.626Z,71.34
2022-09-27T09:30:22.367Z,71.09
2022-09-27T09:33:26.922Z,70.56
2022-09-27T09:36:01.592Z,70.70
2022-09-27T09:38:41.457Z,71.11
2022-09-27T09:41:42.650Z,71.49
2022-09-27T09:44:15.455Z,70.57
2022-09-27T09:46:46.411Z,70.52
2022-09-27T09:49:35.800Z,70.46
2022-09-27T09:52:09.088Z,70.71
2022-09-27T09:54:53.489Z,69.28
2022-09-27T09:57:28.347Z,69.28
2022-09-27T10:00:01.216Z,69.15
2022-09-27T10:02:44.177Z,68.75
2022-09-27T10:05:18.311Z,69.10
2022-09-27T10:07:48.654Z,67.06
2022-09-27T10:10:17.838Z,67.40
2022-09-27T10:13:20.700Z,67.15
2022-09-27T10:16:04.147Z,67.44
2022-09-27T10:18:32.776Z,67.73
2022-09-27T10:21:04.082Z,67.13
2022-09-27T10:23:31.275Z,67.68
2022-09-27T10:26:09.027Z,66.83
2022-09-27T10:28:44.588Z,67.65
2022-09-27T10:31:19.365Z,67.07
2022-09-27T10:34:05.433Z,68.04
2022-09-27T10:36:40.297Z,67.20
2022-09-27T10:39:21.805Z,67.08
2022-09-27T10:41:48.322Z,65.57
2022-09-27T10:44:26.842Z,64.62
2022-09-27T10:47:09.813Z,64.18
2022-09-27T10:49:44.954Z,66.38
2022-09-27T10:52:36.030Z,66.67
2022-09-27T10:55:17.566Z,66.12
2022-09-27T10:57:49.937Z,66.98
2022-09-27T11:00:25.781Z,67.29
2022-09-27T11:02:58.608Z,68.25
2022-09-27T11:05:36.140Z,68.89
2022-09-27T11:08:27.310Z,68.66
2022-09-27T11:11:06.822Z,67.29
2022-09-27T11:13:36.079Z,66.29
2022-09-27T11:16:22.902Z,66.93
2022-09-27T11:19:15.531Z,67.39
2022-09-27T11:22:08.517Z,66.45
2022-09-27T11:24:54.747Z,66.48
2022-09-27T11:27:46.953Z,65.95
2022-09-27T11:30:17.974Z,66.47
2022-09-27T11:33:23.799Z,65.05
2022-09-27T11:36:13.807Z,66.60
2022-09-27T11:39:02.967Z,66.26
2022-09-27T11:41:48.418Z,65.93
2022-09-27T11:45:07.947Z,66.51
2022-09-27T11:47:48.718Z,64.43
2022-09-27T11:50:27.105Z,64.18
2022-09-27T11:52:57.870Z,62.00
2022-09-27T11:55:40.278Z,62.29
2022-09-27T11:58:21.607Z,62.64
2022-09-27T12:01:15.576Z,59.67
2022-09-27T12:04:05.589Z,59.06
2022-09-27T12:06:58.731Z,57.25
2022-09-27T12:09:34.689Z,56.72
2022-09-27T12:12:06.188Z,56.31
2022-09-27T12:14:50.645Z,55.87
2022-09-27T12:17:25.739Z,55.83
2022-09-27T12:19:58.437Z,57.37
2022-09-27T12:22:58.623Z,56.26
2022-09-27T12:25:41.210Z,55.12
2022-09-27T12:28:28.272Z,56.38
2022-09-27T12:31:27.435Z,57.24
2022-09-27T12:34:02.801Z,56.73
2022-09-27T12:36:38.291Z,56.32
2022-09-27T12:39:15.957Z,56.65
2022-09-27T12:41:53.268Z,55.92
2022-09-27T12:44:39.396Z,55.92
2022-09-27T12:47:13.047Z,54.94
2022-09-27T12:50:00.315Z,57.06
2022-09-27T12:52:35.146Z,59.02
2022-09-27T12:55:38.927Z,58.77
2022-09-27T12:58:15.694Z,58.70
2022-09-27T13:00:59.266Z,59.87
2022-09-27T13:03:54.465Z,64.42
2022-09-27T13:06:42.936Z,66.00
2022-09-27T13:09:40.081Z,68.51
2022-09-27T13:12:16.209Z,68.80
2022-09-27T13:15:07.667Z,69.71
2022-09-27T13:17:40.672Z,70.89
2022-09-27T13:20:28.094Z,71.55
2022-09-27T13:22:54.776Z,71.19
2022-09-27T13:25:55.809Z,70.81
2022-09-27T13:28:50.281Z,70.18
2022-09-27T13:31:53.807Z,69.46
2022-09-27T13:34:45.252Z,69.41
2022-09-27T13:37:45.489Z,69.78
2022-09-27T13:40:15.752Z,69.17
2022-09-27T13:43:35.546Z,69.20
2022-09-27T13:46:16.655Z,69.40
2022-09-27T13:49:27.355Z,70.09
2022-09-27T13:52:26.768Z,70.30
2022-09-27T13:55:37.246Z,70.66
2022-09-27T13:58:19.512Z,70.87
2022-09-27T14:00:53.382Z,71.21
2022-09-27T14:03:30.325Z,71.49
2022-09-27T14:06:15.535Z,69.52
2022-09-27T14:08:50.692Z,69.53
2022-09-27T14:11:28.110Z,67.71
2022-09-27T14:13:56.163Z,65.94
2022-09-27T14:16:31.601Z,66.51
2022-09-27T14:18:59.514Z,65.96
2022-09-27T14:21:39.956Z,68.15
2022-09-27T14:24:44.266Z,68.28
2022-09-27T14:27:27.427Z,68.93
2022-09-27T14:30:18.698Z,69.45
2022-09-27T14:32:58.430Z,67.23
2022-09-27T14:36:07.315Z,65.71
2022-09-27T14:38:39.154Z,65.18
2022-09-27T14:41:26.293Z,66.22
2022-09-27T14:43:53.697Z,66.46
2022-09-27T14:46:31.924Z,66.28
2022-09-27T14:48:59.651Z,65.36
2022-09-27T14:51:29.597Z,66.30
2022-09-27T14:54:00.993Z,66.41
2022-09-27T14:56:34.796Z,66.50
2022-09-27T14:59:16.958Z,65.10
2022-09-27T15:01:51.575Z,64.57
2022-09-27T15:04:20.178Z,64.68
2022-09-27T15:06:47.807Z,63.14
2022-09-27T15:09:16.758Z,63.63
2022-09-27T15:11:46.302Z,63.78
2022-09-27T15:14:17.339Z,63.51
2022-09-27T15:16:47.330Z,63.42
2022-09-27T15:19:19.341Z,63.57
2022-09-27T15:21:45.892Z,64.07
2022-09-27T15:24:44.490Z,63.84
2022-09-27T15:27:21.516Z,63.68
2022-09-27T15:29:57.007Z,63.58
2022-09-27T15:32:26.522Z,64.15
2022-09-27T15:34:54.533Z,64.11
2022-09-27T15:37:39.218Z,64.96
2022-09-27T15:40:47.127Z,63.97
2022-09-27T15:43:37.166Z,63.74
2022-09-27T15:46:24.033Z,63.71
2022-09-27T15:49:30.170Z,64.00
2022-09-27T15:51:59.388Z,63.89
2022-09-27T15:54:30.171Z,64.25
2022-09-27T15:57:02.085Z,64.15
2022-09-27T15:59:30.425Z,64.91
2022-09-27T16:02:07.595Z,65.15
2022-09-27T16:04:34.518Z,65.46
2022-09-27T16:07:04.661Z,65.59
2022-09-27T16:09:31.058Z,65.38
2022-09-27T16:11:57.538Z,65.78
2022-09-27T16:14:23.976Z,65.65
2022-09-27T16:16:58.726Z,65.75
2022-09-27T16:19:25.224Z,66.29
2022-09-27T16:21:51.600Z,66.36
2022-09-27T16:24:18.516Z,66.58
2022-09-27T16:26:44.905Z,67.12
2022-09-27T16:29:13.799Z,67.35
2022-09-27T16:31:41.241Z,67.05
2022-09-27T16:34:09.936Z,67.63
2022-09-27T16:36:36.419Z,67.77
2022-09-27T16:39:05.096Z,67.55
2022-09-27T16:41:33.203Z,68.09
2022-09-27T16:44:05.564Z,67.50
2022-09-27T16:46:34.560Z,67.81
2022-09-27T16:49:01.576Z,67.32
2022-09-27T16:51:47.040Z,67.59
2022-09-27T16:54:15.591Z,67.38
2022-09-27T16:56:42.321Z,67.41
2022-09-27T16:59:08.744Z,67.39
2022-09-27T17:01:35.440Z,67.56
2022-09-27T17:04:01.954Z,67.68
2022-09-27T17:06:32.002Z,68.13
2022-09-27T17:09:02.218Z,68.35
2022-09-27T17:11:29.426Z,68.59
2022-09-27T17:13:55.954Z,68.57
2022-09-27T17:16:24.123Z,68.35
2022-09-27T17:18:51.131Z,78.32
2022-09-27T17:21:17.541Z,73.00
2022-09-27T17:23:43.965Z,67.61
2022-09-27T17:26:21.688Z,67.32
2022-09-27T17:28:49.921Z,67.81
2022-09-27T17:31:18.686Z,67.89
2022-09-27T17:33:47.412Z,68.23
2022-09-27T17:36:18.329Z,68.57
2022-09-27T17:38:46.101Z,68.92
2022-09-27T17:41:15.495Z,69.04
2022-09-27T17:43:49.498Z,69.18
2022-09-27T17:46:18.312Z,68.91
2022-09-27T17:49:04.018Z,69.66
2022-09-27T17:51:31.459Z,69.73
2022-09-27T17:53:58.079Z,70.01
2022-09-27T17:56:24.725Z,69.84
2022-09-27T17:58:53.473Z,69.86
2022-09-27T18:01:21.892Z,69.94
2022-09-27T18:03:54.680Z,70.36
2022-09-27T18:06:21.917Z,69.76
2022-09-27T18:08:48.310Z,70.00
2022-09-27T18:11:18.031Z,70.36
2022-09-27T18:13:44.840Z,70.46
2022-09-27T18:16:17.305Z,70.65
2022-09-27T18:18:48.029Z,70.56
2022-09-27T18:21:22.336Z,70.65
2022-09-27T18:23:54.889Z,70.58
2022-09-27T18:26:24.273Z,70.83
2022-09-27T18:28:53.095Z,71.28
2022-09-27T18:31:21.517Z,71.20
2022-09-27T18:33:49.877Z,71.46
2022-09-27T18:36:21.308Z,71.50
2022-09-27T18:38:53.474Z,72.00
2022-09-27T18:41:21.148Z,72.08
2022-09-27T18:43:47.831Z,72.51
2022-09-27T18:46:37.404Z,72.68
2022-09-27T18:49:07.116Z,72.81
2022-09-27T18:51:37.129Z,72.80
2022-09-27T18:54:06.144Z,73.21
2022-09-27T18:56:38.931Z,73.42
2022-09-27T18:59:09.398Z,73.95
2022-09-27T19:01:39.618Z,74.11
2022-09-27T19:04:08.012Z,73.98
2022-09-27T19:06:35.159Z,73.62
2022-09-27T19:09:03.564Z,73.28
2022-09-27T19:11:31.496Z,73.21
2022-09-27T19:18:10.600Z,73.23
2022-09-27T19:20:37.520Z,73.50
2022-09-27T19:23:03.947Z,73.62
2022-09-27T19:25:30.351Z,73.83
2022-09-27T19:27:56.750Z,74.23
2022-09-27T19:30:23.327Z,73.92
2022-09-27T19:32:52.350Z,74.44
2022-09-27T19:35:18.734Z,74.40
2022-09-27T19:37:45.164Z,74.23
2022-09-27T19:40:11.636Z,74.29
2022-09-27T19:42:38.334Z,73.55
2022-09-27T19:45:10.642Z,73.22
2022-09-27T19:47:37.981Z,73.60
2022-09-27T19:50:04.548Z,73.42
2022-09-27T19:52:31.526Z,73.24
2022-09-27T19:54:58.362Z,73.74
2022-09-27T19:57:25.456Z,73.13
2022-09-27T19:59:51.818Z,73.49
2022-09-27T20:02:18.677Z,73.23
2022-09-27T20:04:45.367Z,73.42
2022-09-27T20:07:11.781Z,73.29
2022-09-27T20:09:38.140Z,73.48
2022-09-27T20:12:05.200Z,73.36
2022-09-27T20:14:32.192Z,74.28
2022-09-27T20:16:58.550Z,74.09
2022-09-27T20:19:24.917Z,74.37
2022-09-27T20:21:51.757Z,74.98
2022-09-27T20:24:18.190Z,76.02
2022-09-27T20:26:44.846Z,76.44
2022-09-27T20:29:11.289Z,76.97
2022-09-27T20:31:57.018Z,77.20
2022-09-27T20:34:29.842Z,77.84
2022-09-27T20:36:56.311Z,77.92
2022-09-27T20:39:23.576Z,78.23
2022-09-27T20:41:50.713Z,78.00
2022-09-27T20:44:19.764Z,79.29
2022-09-27T20:46:47.496Z,79.65
2022-09-27T20:49:16.561Z,80.25
2022-09-27T20:51:44.958Z,80.25
2022-09-27T20:54:12.607Z,80.56
2022-09-27T20:56:41.551Z,80.57
2022-09-27T20:59:22.469Z,80.46
2022-09-27T21:01:51.375Z,80.72
2022-09-27T21:04:19.003Z,80.80
2022-09-27T21:06:45.978Z,80.62
2022-09-27T21:09:18.472Z,80.24
2022-09-27T21:11:46.688Z,80.68
2022-09-27T21:14:13.179Z,81.53
2022-09-27T21:16:39.695Z,81.62
2022-09-27T21:19:06.256Z,82.18
2022-09-27T21:21:33.504Z,82.87
2022-09-27T21:24:01.923Z,83.38
2022-09-27T21:26:33.416Z,83.11
2022-09-27T21:29:01.878Z,82.80
2022-09-27T21:31:32.302Z,83.70
2022-09-27T21:34:01.297Z,83.14
2022-09-27T21:36:33.176Z,83.38
2022-09-27T21:38:59.897Z,83.18
2022-09-27T21:41:27.406Z,83.19
2022-09-27T21:43:54.088Z,83.50
2022-09-27T21:46:26.510Z,83.33
2022-09-27T21:48:55.951Z,83.68
2022-09-27T21:51:27.481Z,83.44
2022-09-27T21:54:00.638Z,83.27
2022-09-27T21:56:33.379Z,82.83
2022-09-27T21:59:00.004Z,82.98
2022-09-27T22:01:29.631Z,83.28
2022-09-27T22:03:57.381Z,83.27
2022-09-27T22:06:29.590Z,83.43
2022-09-27T22:08:56.902Z,83.16
2022-09-27T22:11:25.765Z,82.99
2022-09-27T22:13:52.295Z,82.65
2022-09-27T22:16:20.228Z,82.90
2022-09-27T22:18:48.939Z,82.67
2022-09-27T22:21:19.879Z,82.83
2022-09-27T22:23:46.581Z,82.62
2022-09-27T22:26:17.313Z,83.05
2022-09-27T22:28:45.117Z,83.30
2022-09-27T22:31:14.882Z,82.86
2022-09-27T22:33:42.823Z,82.45
2022-09-27T22:36:09.210Z,82.41
2022-09-27T22:38:35.696Z,82.41
2022-09-27T22:41:03.227Z,81.57
2022-09-27T22:43:30.474Z,81.85
2022-09-27T22:45:57.588Z,82.11
2022-09-27T22:48:24.086Z,82.41
2022-09-27T22:50:50.493Z,82.54
2022-09-27T22:53:17.064Z,82.81
2022-09-27T22:55:43.434Z,82.89
2022-09-27T22:58:09.893Z,83.57
2022-09-27T23:00:38.018Z,83.64
2022-09-27T23:03:04.572Z,83.66
2022-09-27T23:05:30.920Z,83.57
2022-09-27T23:07:57.392Z,83.55
2022-09-27T23:10:23.782Z,84.05
2022-09-27T23:12:58.153Z,83.74
2022-09-27T23:15:24.704Z,84.39
2022-09-27T23:17:51.558Z,84.74
2022-09-27T23:20:18.658Z,84.90
2022-09-27T23:22:45.446Z,84.96
2022-09-27T23:25:12.592Z,84.14
2022-09-27T23:27:42.038Z,84.49
2022-09-27T23:30:09.909Z,84.83
2022-09-27T23:32:36.539Z,84.45
2022-09-27T23:35:03.816Z,84.02
2022-09-27T23:37:30.847Z,84.38
2022-09-27T23:39:57.331Z,84.09
2022-09-27T23:42:23.877Z,84.35
2022-09-27T23:44:52.572Z,84.19
2022-09-27T23:47:19.009Z,83.57
2022-09-27T23:49:45.463Z,84.17
2022-09-27T23:52:13.530Z,84.40
2022-09-27T23:54:40.652Z,84.63
2022-09-27T23:57:07.582Z,84.41
2022-09-27T23:59:34.028Z,84.45
